Latest Coastal Weather Observations for Bellambi

IDN60701

Issued at 1:51 am EST Thursday 30 July 2015 (issued every 10 minutes, with the page automatically refreshed every 10 minutes)

About coastal observations | Map of coastal stations | Coastal observations for NSW | Marine services | Other Formats
Station Details ID: 068228 Name: BELLAMBI AWS Lat: -34.37 Lon: 150.93 Height: 10.0 m
Data from the previous 72 hours. | See also: Recent months at Bellambi
Date/Time
EST
Temp

°C
Wind Pressure Rain
since 9am
mm
Weather Cloud Vis
km
Sea
Height
m
Swell
Dir
 
Speed
knots
Gust
knots
hPa Trend Height
m
Period
s
Dir
30/01:30am 13.6 N 13 19 - - 0.0 - - - - - - -
30/01:00am 13.6 N 12 17 - - 0.0 - - - - - - -
30/12:30am 12.1 NW 9 12 - - 0.0 - - - - - - -
30/12:00am 13.8 N 12 14 - - 0.0 - Cloudy - - - - -
 
Date/Time
EST
Temp

°C
Wind Pressure Rain
since 9am
mm
Weather Cloud Vis
km
Sea
Height
m
Swell
Dir
 
Speed
knots
Gust
knots
hPa Trend Height
m
Period
s
Dir
29/11:30pm 13.2 N 10 11 - - 0.0 - - - - - - -
29/11:00pm 12.0 NNW 8 10 - - 0.0 - - - - - - -
29/10:30pm 12.9 NNW 10 12 - - 0.0 - - - - - - -
29/10:00pm 11.9 NNW 7 9 - - 0.0 - - - - - - -
29/09:30pm 11.3 NNW 4 5 - - 0.0 - - - - - - -
29/09:00pm 10.8 NW 5 6 - - 0.0 - - - - - - -
29/08:30pm 10.9 NW 5 5 - - 0.0 - - - - - - -
29/08:00pm 11.1 NW 5 6 - - 0.0 - - - - - - -
29/07:30pm 11.1 NW 5 6 - - 0.0 - - - - - - -
29/07:00pm 11.3 NW 5 6 - - 0.0 - - - - - - -
29/06:30pm 11.8 WNW 5 6 - - 0.0 - - - - - - -
29/06:00pm 11.8 WNW 4 5 - - 0.0 - - - - - - -
29/05:30pm 12.2 WNW 4 5 - - 0.0 - - - - - - -
29/05:00pm 13.6 NNW 5 6 - - 0.0 - - - - - - -
29/04:30pm 14.1 NE 5 7 - - 0.0 - - - - - - -
29/04:00pm 14.9 NE 4 6 - - 0.0 - - - - - - -
29/03:30pm 15.0 NE 5 8 - - 0.0 - - - - - - -
29/03:00pm 15.2 ENE 5 7 - - 0.0 - - - - - - -
29/02:30pm 15.2 ENE 6 7 - - 0.0 - - - - - - -
29/02:00pm 14.7 ESE 6 8 - - 0.0 - - - - - - -
29/01:30pm 15.0 ESE 6 7 - - 0.0 - - - - - - -
29/01:00pm 14.8 SE 6 8 - - 0.0 - - - - - - -
29/12:30pm 14.8 SE 8 9 - - 0.0 - - - - - - -
29/12:00pm 14.9 SSE 7 8 - - 0.0 - - - - - - -
29/11:30am 14.7 SSE 7 9 - - 0.0 - - - - - - -
29/11:00am 14.8 SSE 7 10 - - 0.0 - - - - - - -
29/10:30am 14.4 S 7 9 - - 0.0 - - - - - - -
29/10:00am 14.4 SSW 6 10 - - 0.0 - - - - - - -
29/09:30am 14.2 SSW 6 9 - - 0.0 - - - - - - -
29/09:00am 13.7 SW 6 8 - - 0.0 - - - - - - -
29/08:30am 12.8 WSW 5 6 - - 0.0 - - - - - - -
29/08:00am 11.4 W 6 7 - - 0.0 - - - - - - -
29/07:30am 10.3 W 6 7 - - 0.0 - - - - - - -
29/07:00am 9.9 WSW 6 8 - - 0.0 - - - - - - -
29/06:30am 9.9 W 7 8 - - 0.0 - - - - - - -
29/06:00am 9.9 WSW 7 8 - - 0.0 - - - - - - -
29/05:30am 10.2 W 7 8 - - 0.0 - - - - - - -
29/05:00am 10.5 WSW 7 9 - - 0.0 - - - - - - -
29/04:30am 10.3 W 7 8 - - 0.0 - Partly cloudy - - - - -
29/04:00am 10.3 WSW 6 7 - - 0.0 - Partly cloudy - - - - -
29/03:30am 10.7 W 4 5 - - 0.0 - Partly cloudy - - - - -
29/03:00am 10.6 W 5 6 - - 0.0 - Cloudy - - - - -
29/02:30am 10.2 W 7 8 - - 0.0 - Cloudy - - - - -
29/02:00am 10.0 SW 5 7 - - 0.0 - Partly cloudy - - - - -
29/01:30am 9.7 W 5 6 - - 0.0 - Partly cloudy - - - - -
29/01:00am 10.0 WNW 6 6 - - 0.0 - Partly cloudy - - - - -
29/12:30am 10.3 W 7 8 - - 0.0 - Partly cloudy - - - - -
29/12:00am 10.1 W 8 9 - - 0.0 - - - - - - -
 
Date/Time
EST
Temp

°C
Wind Pressure Rain
since 9am
mm
Weather Cloud Vis
km
Sea
Height
m
Swell
Dir
 
Speed
knots
Gust
knots
hPa Trend Height
m
Period
s
Dir
28/11:30pm 10.3 W 7 7 - - 0.0 - - - - - - -
28/11:00pm 10.2 W 7 7 - - 0.0 - - - - - - -
28/10:30pm 10.1 W 8 8 - - 0.0 - - - - - - -
28/10:00pm 10.2 WSW 7 8 - - 0.0 - - - - - - -
28/09:30pm 9.9 WSW 7 8 - - 0.0 - - - - - - -
28/09:00pm 9.7 W 6 7 - - 0.0 - - - - - - -
28/08:30pm 9.7 W 6 7 - - 0.0 - - - - - - -
28/08:00pm 9.7 W 3 4 - - 0.0 - - - - - - -
28/07:30pm 10.2 NW 4 5 - - 0.0 - - - - - - -
28/07:00pm 10.2 WNW 5 6 - - 0.0 - - - - - - -
28/06:30pm 11.7 CALM 0 3 - - 0.0 - - - - - - -
28/06:00pm 13.1 WSW 3 6 - - 0.0 - - - - - - -
28/05:30pm 14.1 SSE 9 13 - - 0.0 - - - - - - -
28/05:00pm 14.0 SSE 9 12 - - 0.0 - - - - - - -
28/04:30pm 14.4 SSE 10 13 - - 0.0 - - - - - - -
28/04:00pm 14.6 SSE 11 14 - - 0.0 - - - - - - -
28/03:30pm 14.8 SSE 12 16 - - 0.0 - - - - - - -
28/03:00pm 14.9 SSE 12 14 - - 0.0 - Mostly clear - - - - -
28/02:30pm 15.3 SSE 10 13 - - 0.0 - Partly cloudy - - - - -
28/02:00pm 15.4 S 8 11 - - 0.0 - - - - - - -
28/01:30pm 15.0 S 11 13 - - 0.0 - - - - - - -
28/01:00pm 15.0 S 13 18 - - 0.0 - - - - - - -
28/12:30pm 15.3 SSW 13 18 - - 0.0 - - - - - - -
28/12:00pm 15.5 SSW 13 17 - - 0.0 - - - - - - -
28/11:30am 15.2 SSW 11 16 - - 0.0 - - - - - - -
28/11:00am 15.1 SSW 10 15 - - 0.0 - - - - - - -
28/10:30am 14.5 SW 9 15 - - 0.0 - - - - - - -
28/10:00am 14.3 W 5 9 - - 0.0 - - - - - - -
28/09:30am 13.4 W 6 10 - - 0.0 - - - - - - -
28/09:00am 12.4 W 7 12 - - 0.0 - - - - - - -
28/08:30am 11.4 W 7 11 - - 0.0 - - - - - - -
28/08:00am 10.1 WNW 5 8 - - 0.0 - - - - - - -
28/07:30am 9.0 WNW 6 8 - - 0.0 - - - - - - -
28/07:00am 9.0 W 8 11 - - 0.0 - - - - - - -
28/06:30am 8.9 W 10 13 - - 0.0 - - - - - - -
28/06:00am 8.8 W 6 9 - - 0.0 - - - - - - -
28/05:30am 9.0 W 6 10 - - 0.0 - - - - - - -
28/05:00am 9.5 W 8 12 - - 0.0 - - - - - - -
28/04:30am 9.3 WSW 9 14 - - 0.0 - - - - - - -
28/04:00am 8.8 W 8 12 - - 0.0 - - - - - - -
28/03:30am 9.0 W 11 16 - - 0.0 - - - - - - -
28/03:00am 9.0 W 11 16 - - 0.0 - - - - - - -
28/02:30am 8.8 W 12 20 - - 0.0 - - - - - - -
28/02:00am 9.0 W 12 21 - - 0.0 - - - - - - -
28/01:30am 9.2 W 13 19 - - 0.0 - - - - - - -
28/01:00am 9.4 W 11 17 - - 0.0 - - - - - - -
28/12:30am 9.9 W 13 22 - - 0.0 - - - - - - -
28/12:00am 9.6 W 10 17 - - 0.0 - - - - - - -
 
Date/Time
EST
Temp

°C
Wind Pressure Rain
since 9am
mm
Weather Cloud Vis
km
Sea
Height
m
Swell
Dir
 
Speed
knots
Gust
knots
hPa Trend Height
m
Period
s
Dir
27/11:30pm 9.4 W 12 16 - - 0.0 - - - - - - -
27/11:00pm 9.9 W 13 18 - - 0.0 - - - - - - -
27/10:30pm 9.8 W 13 21 - - 0.0 - - - - - - -
27/10:00pm 9.5 W 11 17 - - 0.0 - - - - - - -
27/09:30pm 9.4 W 12 20 - - 0.0 - - - - - - -
27/09:00pm 9.4 W 12 19 - - 0.0 - - - - - - -
27/08:30pm 9.4 W 12 19 - - 0.0 - - - - - - -
27/08:00pm 9.6 W 12 19 - - 0.0 - - - - - - -
27/07:30pm 9.8 WSW 11 16 - - 0.0 - - - - - - -
27/07:00pm 10.1 WSW 12 17 - - 0.0 - - - - - - -
27/06:30pm 10.5 W 12 18 - - 0.0 - - - - - - -
27/06:00pm 11.1 W 11 18 - - 0.0 - - - - - - -
27/05:30pm 11.3 W 9 14 - - 0.0 - - - - - - -
27/05:00pm 11.8 W 9 14 - - 0.0 - - - - - - -
27/04:30pm 12.9 W 9 13 - - 0.0 - - - - - - -
27/04:00pm 13.5 W 9 15 - - 0.0 - - - - - - -
27/03:30pm 13.7 W 11 18 - - 0.0 - - - - - - -
27/03:00pm 13.9 WSW 11 16 - - 0.0 - - - - - - -
27/02:30pm 14.1 WSW 11 17 - - 0.0 - - - - - - -
27/02:00pm 14.3 W 10 17 - - 0.0 - - - - - - -
27/01:30pm 14.3 W 9 17 - - 0.0 - - - - - - -
27/01:00pm 13.7 WSW 12 17 - - 0.0 - - - - - - -
27/12:30pm 13.8 WSW 10 16 - - 0.0 - - - - - - -
27/12:00pm 13.5 WSW 11 19 - - 0.0 - - - - - - -
27/11:30am 12.8 WSW 12 19 - - 0.0 - - - - - - -
27/11:00am 12.4 WSW 15 21 - - 0.0 - - - - - - -
27/10:30am 11.7 W 17 24 - - 0.0 - - - - - - -
27/10:00am 11.2 WSW 15 22 - - 0.0 - - - - - - -
27/09:58am 11.0 WSW 15 22 - - 0.0 - - - - - - -
27/09:30am 10.6 WSW 8 11 - - 0.0 - - - - - - -
27/09:00am 9.6 W 11 17 - - 0.0 - - - - - - -
27/08:30am 9.2 SW 8 14 - - 0.0 - - - - - - -
27/08:00am 8.9 S 9 15 - - 0.0 - - - - - - -
27/07:30am 8.7 SSW 9 16 - - 0.0 - - - - - - -
27/07:00am 8.2 SW 12 19 - - 0.0 - - - - - - -
27/06:30am 8.4 SSW 10 15 - - 0.0 - - - - - - -
27/06:00am 8.3 SSW 8 20 - - 0.0 - - - - - - -
27/05:30am 8.4 SW 8 12 - - 0.0 - - - - - - -
27/05:00am 8.6 SW 10 18 - - 0.0 - - - - - - -
27/04:30am 8.9 W 13 24 - - 0.0 - - - - - - -
27/04:00am 8.9 WSW 14 22 - - 0.0 - - - - - - -
27/03:57am 9.0 WSW 15 28 - - 0.0 - - - - - - -
27/03:30am 9.1 WSW 11 23 - - 0.0 - - - - - - -
27/03:00am 9.3 W 15 27 - - 0.0 - - - - - - -
27/02:34am 9.6 W 15 26 - - 0.0 - - - - - - -
27/02:30am 9.5 W 15 24 - - 0.0 - - - - - - -
27/02:00am 9.6 W 17 30 - - 0.0 - - - - - - -

Other Formats:

Comma delimited format used in spreadsheet applications
http://www.bom.gov.au/fwo/IDN60701/IDN60701.94749.axf

JavaScript Object Notation format (JSON) in row-major order
http://www.bom.gov.au/fwo/IDN60701/IDN60701.94749.json